Mount Jackson, VA

9:59 PM EDT on September 26, 2016 (GMT -0400)
Winchester Regional | | Change Station

Elev 728 ft 39.14 °N, 78.14 °W | Updated 4 minutes ago

Overcast
Overcast
64 °F
Feels Like 64 °F
N
6
Wind Variable Wind from South

Today
High -- | Low -- °F
--% Chance of Precip.
Yesterday
High -- | Low -- °F
Precip. -- in
Pressure 29.97 in
Visibility 10.0 miles
Clouds Overcast 1800 ft
Dew Point 63 °F
Humidity 94%
Rainfall 0.14 in
Snow Depth Not available.
7:06 AM 7:04 PM
Waning Crescent, 15% visible
METAR KOKV 270155Z AUTO 17005KT 10SM OVC018 18/17 A2997 RMK AO2
Pressure 29.97 in
Visibility 10.0 miles
Clouds Overcast 1800 ft
Dew Point 63 °F
Humidity 94%
Rainfall 0.14 in
Snow Depth Not available.
7:06 AM 7:04 PM
Waning Crescent, 15% visible
METAR KOKV 270155Z AUTO 17005KT 10SM OVC018 18/17 A2997 RMK AO2

10-Day Weather Forecast

Almanac

Astronomy

Sep. 26, 2016 Rise Set
Actual Time
Civil Twilight
Nautical Twilight
Astronomical Twilight
Moon
Length of Visible Light
Length of Day
Tomorrow will be .
, % of the Moon is Illuminated

Today's Extremes

State Highs State Lows

Community

WunderPhotos

Upload Photos

1,942,010 photos uploaded!

WunderBlog® & News

Nearby

Air Quality

  Air Quality AQ Index Pollutant
Not available.

Snow Depth

Station Depth Elevation

Earthquake Activity

City Distance Mag. Time & Date
Minimum magnitude displayed is 2.5.

Coastal Water Temperatures

Place Temperature

Stations

Nearby Weather Stations

Station Location Temp. Windchill Dew Point Humidity Wind Precip. Elev Updated Type
                   

Watches & Warnings

There are currently no watches in effect.